Time;durP1;ratioP1;P1;durP2;ratioP2;P2;SDS_P1;SDS_P2;PMS_P1;PMS_P2;Temp;Humidity;BMP_temperature;BMP_pressure;BME280_temperature;BME280_humidity;BME280_pressure;Samples;Min_cycle;Max_cycle;Signal;HPM_P1;HPM_P2
2023/10/09 00:03:00;;;;;;;30.60;6.10;;;13.90;99.90;;;;;;5048174;28;20430;-73
2023/10/09 00:08:17;;;;;;;28.13;6.57;;;13.90;99.90;;;;;;5048218;28;20199;-72
2023/10/09 00:10:49;;;;;;;21.43;5.37;;;13.90;99.90;;;;;;5047796;28;20441;-73
2023/10/09 00:13:15;;;;;;;17.00;5.37;;;13.90;99.90;;;;;;5030664;28;20438;-73
2023/10/09 00:15:42;;;;;;;26.70;5.30;;;13.80;99.90;;;;;;5047537;28;20476;-73
2023/10/09 00:18:11;;;;;;;25.13;5.47;;;13.90;99.90;;;;;;5047706;28;20491;-73
2023/10/09 00:20:42;;;;;;;31.60;7.20;;;13.80;99.90;;;;;;5049563;28;20972;-72
2023/10/09 00:23:15;;;;;;;46.60;6.70;;;13.90;99.90;;;;;;5050187;28;20935;-73
2023/10/09 00:26:05;;;;;;;31.67;6.53;;;13.80;99.90;;;;;;5051385;28;20450;-73
2023/10/09 00:28:30;;;;;;;31.83;5.83;;;13.90;99.90;;;;;;5051851;28;20906;-73
2023/10/09 00:30:56;;;;;;;27.47;6.37;;;13.90;99.90;;;;;;5051338;28;20517;-73
2023/10/09 00:33:22;;;;;;;32.33;6.83;;;14.00;99.90;;;;;;5050498;28;20196;-73
2023/10/09 00:35:54;;;;;;;23.77;5.50;;;14.00;99.90;;;;;;5050572;28;20269;-73
2023/10/09 00:40:47;;;;;;;20.60;5.83;;;14.00;99.90;;;;;;5052257;28;20536;-73
2023/10/09 00:43:19;;;;;;;34.13;6.83;;;14.00;99.90;;;;;;5052024;28;20281;-73
2023/10/09 00:45:46;;;;;;;34.00;5.77;;;14.00;99.90;;;;;;5051970;28;20442;-73
2023/10/09 00:48:23;;;;;;;35.17;5.57;;;14.00;99.90;;;;;;5052061;28;20501;-73
2023/10/09 00:50:52;;;;;;;19.43;5.73;;;14.10;99.90;;;;;;5050849;28;20423;-74
2023/10/09 00:53:30;;;;;;;25.83;5.40;;;14.10;99.90;;;;;;5050630;28;20421;-73
2023/10/09 00:55:57;;;;;;;31.43;6.10;;;14.10;99.90;;;;;;5051703;28;20579;-73
2023/10/09 00:58:31;;;;;;;33.50;8.20;;;14.10;99.90;;;;;;5051434;28;20801;-73
2023/10/09 01:00:59;;;;;;;29.60;5.40;;;14.10;99.90;;;;;;5051257;28;20526;-73
2023/10/09 01:03:25;;;;;;;40.50;7.50;;;14.10;99.90;;;;;;5051098;28;20986;-72
2023/10/09 01:11:29;;;;;;;22.37;5.57;;;13.90;99.90;;;;;;5049642;28;20438;-73
2023/10/09 01:14:31;;;;;;;30.07;5.37;;;13.80;99.90;;;;;;5050915;28;20450;-73
2023/10/09 01:16:53;;;;;;;24.47;5.67;;;13.90;99.90;;;;;;5049243;28;20478;-73
2023/10/09 01:19:25;;;;;;;43.63;7.73;;;13.90;99.90;;;;;;5049266;28;20522;-73
2023/10/09 01:21:51;;;;;;;30.83;7.47;;;13.90;99.90;;;;;;5049119;28;20496;-73
2023/10/09 01:24:19;;;;;;;31.50;5.90;;;13.80;99.90;;;;;;5049096;28;20422;-72
2023/10/09 01:26:49;;;;;;;24.00;5.60;;;13.70;99.90;;;;;;5050584;28;20484;-72
2023/10/09 01:29:23;;;;;;;35.03;5.93;;;13.70;99.90;;;;;;5048959;28;20484;-73
2023/10/09 01:31:55;;;;;;;20.73;5.57;;;13.70;99.90;;;;;;5049619;28;20430;-72
2023/10/09 01:37:11;;;;;;;30.63;6.60;;;13.70;99.90;;;;;;5050292;28;20466;-72
2023/10/09 01:39:41;;;;;;;24.47;6.50;;;13.70;99.90;;;;;;5050348;28;20410;-72
2023/10/09 01:42:07;;;;;;;25.80;5.43;;;13.70;99.90;;;;;;5050399;28;20424;-73
2023/10/09 01:44:42;;;;;;;22.20;5.20;;;13.70;99.90;;;;;;5050155;28;20527;-73
2023/10/09 01:47:13;;;;;;;29.23;6.47;;;13.70;99.90;;;;;;5050402;28;20413;-73
2023/10/09 01:49:43;;;;;;;28.30;6.40;;;13.70;99.90;;;;;;5050253;28;20456;-72
2023/10/09 01:52:15;;;;;;;24.83;5.47;;;13.70;99.90;;;;;;5048878;28;21085;-73
2023/10/09 01:54:42;;;;;;;27.37;6.37;;;13.70;99.90;;;;;;5048438;28;20456;-72
2023/10/09 01:57:12;;;;;;;29.97;7.23;;;13.70;99.90;;;;;;5049942;28;20473;-73
2023/10/09 01:59:47;;;;;;;40.57;7.90;;;13.70;99.90;;;;;;5049896;28;20422;-72
2023/10/09 02:02:26;;;;;;;41.20;6.83;;;13.70;99.90;;;;;;5049848;28;20958;-73
2023/10/09 02:04:53;;;;;;;29.13;6.50;;;13.70;99.90;;;;;;5049824;28;20461;-72
2023/10/09 02:07:29;;;;;;;20.03;5.73;;;13.80;99.90;;;;;;5049890;28;20422;-72
2023/10/09 02:09:56;;;;;;;25.83;5.30;;;13.80;99.90;;;;;;5049958;28;20415;-72
2023/10/09 02:12:23;;;;;;;29.27;5.50;;;13.90;99.90;;;;;;5049753;28;20431;-73
2023/10/09 02:14:53;;;;;;;40.63;7.40;;;13.90;99.90;;;;;;5048313;28;20471;-73
2023/10/09 02:17:20;;;;;;;34.00;6.37;;;13.90;99.90;;;;;;5050000;28;20541;-73
2023/10/09 02:19:49;;;;;;;32.13;6.33;;;13.90;99.90;;;;;;5048214;28;20422;-72
2023/10/09 02:22:16;;;;;;;35.87;5.97;;;13.90;99.90;;;;;;5048439;28;20415;-72
2023/10/09 02:30:11;;;;;;;33.97;7.00;;;13.90;99.90;;;;;;5050224;28;20425;-72
2023/10/09 02:32:39;;;;;;;22.63;6.37;;;13.90;99.90;;;;;;5033441;28;20526;-73
2023/10/09 02:35:18;;;;;;;36.70;6.87;;;13.90;99.90;;;;;;5048420;28;20842;-73
2023/10/09 02:37:45;;;;;;;49.43;6.97;;;14.00;99.90;;;;;;5048737;28;20422;-73
2023/10/09 02:40:15;;;;;;;35.17;7.23;;;13.90;99.90;;;;;;5048570;28;20450;-73
2023/10/09 02:42:43;;;;;;;24.73;5.13;;;13.90;99.90;;;;;;5048393;28;20795;-73
2023/10/09 02:45:10;;;;;;;34.03;6.50;;;13.90;99.90;;;;;;5048383;28;20447;-73
2023/10/09 02:47:39;;;;;;;24.23;6.63;;;13.90;99.90;;;;;;5048113;28;20878;-73
2023/10/09 02:50:11;;;;;;;27.30;6.67;;;13.90;99.90;;;;;;5048191;28;20422;-73
2023/10/09 02:52:40;;;;;;;27.40;6.50;;;13.90;99.90;;;;;;5049428;28;20429;-72
2023/10/09 02:55:13;;;;;;;21.37;5.10;;;13.70;99.90;;;;;;5047830;28;20537;-73
2023/10/09 02:57:41;;;;;;;20.73;5.13;;;13.60;99.90;;;;;;5049232;28;20795;-73
2023/10/09 03:00:18;;;;;;;35.33;6.67;;;13.60;99.90;;;;;;5031313;28;20862;-73
2023/10/09 03:02:49;;;;;;;25.13;5.80;;;13.60;99.90;;;;;;5048759;28;20520;-72
2023/10/09 03:05:15;;;;;;;25.90;6.00;;;13.60;99.90;;;;;;5047393;28;21014;-72
2023/10/09 03:07:42;;;;;;;29.13;7.30;;;13.60;99.90;;;;;;5047130;28;20433;-72
2023/10/09 03:10:10;;;;;;;25.60;6.87;;;13.60;99.90;;;;;;5047062;28;20434;-72
2023/10/09 03:12:36;;;;;;;44.77;7.13;;;13.60;99.90;;;;;;5047153;28;20418;-72
2023/10/09 03:15:05;;;;;;;36.23;8.17;;;13.60;99.90;;;;;;5048444;28;20438;-73
2023/10/09 03:17:34;;;;;;;30.00;7.30;;;13.60;99.90;;;;;;5048664;28;20551;-73
2023/10/09 03:20:12;;;;;;;34.80;6.57;;;13.70;99.90;;;;;;5048389;28;20499;-72
2023/10/09 03:22:39;;;;;;;33.47;5.80;;;13.70;99.90;;;;;;5031275;28;20429;-72
2023/10/09 03:25:11;;;;;;;25.77;6.67;;;13.70;99.90;;;;;;5046913;28;20444;-73
2023/10/09 03:27:46;;;;;;;33.60;6.87;;;13.70;99.90;;;;;;5048307;28;20422;-72
2023/10/09 03:30:25;;;;;;;25.73;8.20;;;13.70;99.90;;;;;;5048343;28;20794;-72
2023/10/09 03:32:52;;;;;;;32.03;7.40;;;13.70;99.90;;;;;;5048429;28;20556;-72
2023/10/09 03:35:25;;;;;;;23.13;6.60;;;13.70;99.90;;;;;;5048016;28;20435;-72
2023/10/09 03:38:00;;;;;;;24.73;7.00;;;13.70;99.90;;;;;;5046949;28;20434;-72
2023/10/09 03:40:27;;;;;;;24.20;6.00;;;13.70;99.90;;;;;;5048210;28;20414;-72
2023/10/09 03:42:52;;;;;;;25.50;7.23;;;13.80;99.90;;;;;;5030175;28;20435;-73
2023/10/09 03:45:26;;;;;;;38.83;7.50;;;13.80;99.90;;;;;;5048126;28;20442;-72
2023/10/09 03:48:08;;;;;;;24.77;5.37;;;13.70;99.90;;;;;;5048093;28;20184;-72
2023/10/09 03:50:37;;;;;;;38.27;8.20;;;13.80;99.90;;;;;;5046335;28;20445;-72
2023/10/09 03:53:11;;;;;;;26.93;7.23;;;13.90;99.90;;;;;;5046591;28;20817;-72
2023/10/09 03:55:40;;;;;;;29.50;5.87;;;13.90;99.90;;;;;;5051693;28;20506;-72
2023/10/09 03:58:06;;;;;;;40.63;7.10;;;13.90;99.90;;;;;;5050509;28;20526;-72
2023/10/09 04:00:40;;;;;;;24.07;4.83;;;14.00;99.90;;;;;;5051902;28;20427;-72
2023/10/09 04:03:06;;;;;;;37.30;6.67;;;14.10;99.90;;;;;;5052029;28;20505;-72
2023/10/09 04:05:32;;;;;;;25.70;5.83;;;14.20;99.90;;;;;;5051946;28;20911;-72
2023/10/09 04:08:01;;;;;;;17.00;4.40;;;14.30;99.90;;;;;;5050358;28;20196;-72
2023/10/09 04:10:32;;;;;;;28.63;4.27;;;14.50;99.90;;;;;;5051869;28;20234;-72
2023/10/09 04:13:00;;;;;;;18.93;5.03;;;14.60;99.90;;;;;;5051876;28;20904;-73
2023/10/09 04:15:30;;;;;;;27.93;5.10;;;14.80;99.90;;;;;;5050196;28;20442;-72
2023/10/09 04:17:56;;;;;;;20.57;4.30;;;14.90;99.90;;;;;;5050587;28;21290;-73
2023/10/09 04:22:50;;;;;;;20.80;3.73;;;15.20;99.90;;;;;;5051473;28;20423;-72
2023/10/09 04:25:25;;;;;;;18.73;4.13;;;15.40;99.90;;;;;;5051434;28;20211;-73
2023/10/09 04:27:53;;;;;;;23.70;4.77;;;15.60;99.90;;;;;;5051598;28;20770;-73
2023/10/09 04:30:19;;;;;;;25.70;4.20;;;15.70;99.90;;;;;;5051517;28;20418;-73
2023/10/09 04:32:45;;;;;;;14.23;4.23;;;15.90;99.90;;;;;;5051518;28;20926;-73
2023/10/09 04:35:24;;;;;;;28.87;4.37;;;16.10;99.90;;;;;;5051315;28;21257;-72
2023/10/09 04:38:05;;;;;;;18.40;4.17;;;16.40;99.90;;;;;;5035111;28;20435;-73
2023/10/09 04:40:41;;;;;;;12.57;3.40;;;16.70;99.30;;;;;;5051493;28;20751;-72
2023/10/09 04:43:09;;;;;;;23.73;4.20;;;16.90;99.00;;;;;;5051398;28;20428;-73
2023/10/09 04:48:10;;;;;;;22.57;3.93;;;17.00;99.10;;;;;;5051206;28;20903;-73
2023/10/09 04:50:45;;;;;;;17.63;3.30;;;17.20;96.70;;;;;;5051290;28;20424;-74
2023/10/09 04:53:43;;;;;;;17.13;4.33;;;17.20;97.70;;;;;;5051228;28;20423;-73
2023/10/09 04:56:04;;;;;;;10.40;3.60;;;17.30;96.60;;;;;;5050732;28;20502;-72
2023/10/09 04:58:32;;;;;;;20.40;4.23;;;17.20;99.20;;;;;;5051138;28;20433;-73
2023/10/09 05:03:42;;;;;;;14.50;3.80;;;17.10;99.40;;;;;;5051357;28;20432;-73
2023/10/09 05:06:21;;;;;;;21.77;4.37;;;17.00;99.40;;;;;;5049838;28;20223;-73
2023/10/09 05:08:54;;;;;;;17.80;3.60;;;17.00;98.70;;;;;;5049587;28;20437;-73
2023/10/09 05:11:36;;;;;;;19.23;4.53;;;17.00;99.50;;;;;;5033919;28;20437;-72
2023/10/09 05:14:14;;;;;;;23.70;4.70;;;17.00;98.90;;;;;;5050843;28;20759;-73
2023/10/09 05:16:55;;;;;;;23.30;4.93;;;17.00;98.50;;;;;;5049204;28;20532;-72
2023/10/09 05:22:09;;;;;;;17.23;3.93;;;17.10;98.80;;;;;;5050975;28;20456;-72
2023/10/09 05:24:46;;;;;;;26.13;4.50;;;17.00;99.90;;;;;;5049333;28;20434;-72
2023/10/09 05:28:24;;;;;;;16.37;3.50;;;17.00;98.10;;;;;;5049922;28;20418;-72
2023/10/09 05:30:12;;;;;;;22.23;3.97;;;17.10;97.80;;;;;;5053962;28;20490;-73
2023/10/09 05:32:48;;;;;;;20.47;3.80;;;17.10;98.20;;;;;;5051324;28;20506;-72
2023/10/09 05:35:20;;;;;;;18.90;3.90;;;17.00;99.20;;;;;;5050912;28;20508;-73
2023/10/09 05:37:45;;;;;;;22.27;3.60;;;17.00;98.40;;;;;;5049806;28;20959;-71
2023/10/09 05:46:07;;;;;;;19.50;3.50;;;17.10;97.60;;;;;;5051072;28;20468;-72
2023/10/09 06:04:33;;;;;;;11.20;3.43;;;18.60;90.60;;;;;;5050400;28;21000;-73
2023/10/09 06:07:11;;;;;;;16.50;3.03;;;18.80;89.90;;;;;;5050351;28;20452;-73
2023/10/09 06:09:56;;;;;;;8.47;3.27;;;18.80;90.00;;;;;;5050177;28;20413;-73
2023/10/09 06:12:49;;;;;;;13.97;3.40;;;18.90;90.00;;;;;;5050103;28;20422;-73
2023/10/09 06:15:30;;;;;;;18.50;3.67;;;18.90;90.30;;;;;;5049879;28;20447;-74
2023/10/09 06:18:25;;;;;;;16.47;4.63;;;18.90;89.70;;;;;;5048264;28;20429;-73
2023/10/09 06:23:57;;;;;;;18.67;3.60;;;19.10;88.70;;;;;;5049723;28;20425;-73
2023/10/09 06:26:23;;;;;;;19.83;4.27;;;19.20;92.00;;;;;;5049390;28;21090;-73
2023/10/09 06:29:13;;;;;;;19.73;4.20;;;19.10;90.20;;;;;;5049777;28;20467;-73
2023/10/09 06:31:57;;;;;;;16.13;3.50;;;19.20;90.50;;;;;;5048264;28;20991;-73
2023/10/09 06:34:24;;;;;;;14.83;3.73;;;19.20;90.40;;;;;;5049312;28;20436;-73
2023/10/09 06:36:52;;;;;;;20.30;3.50;;;19.30;90.00;;;;;;5047612;28;20993;-73
2023/10/09 06:42:16;;;;;;;22.20;3.67;;;19.40;89.00;;;;;;5048022;28;20457;-72
2023/10/09 06:44:54;;;;;;;21.03;3.63;;;19.40;88.30;;;;;;5047646;28;20421;-72
2023/10/09 06:47:23;;;;;;;16.90;3.73;;;19.50;89.60;;;;;;5047737;28;20508;-72
2023/10/09 06:50:24;;;;;;;24.87;4.27;;;19.50;85.60;;;;;;5047673;28;20927;-71
2023/10/09 06:55:19;;;;;;;19.70;3.70;;;19.60;85.50;;;;;;5046986;28;20448;-72
2023/10/09 06:57:48;;;;;;;21.60;3.57;;;19.70;86.30;;;;;;5048201;28;20509;-72
2023/10/09 07:00:51;;;;;;;15.70;3.87;;;19.70;86.00;;;;;;5048377;28;20897;-72
2023/10/09 07:03:11;;;;;;;20.07;3.93;;;19.80;86.20;;;;;;5047969;28;20446;-72
2023/10/09 07:06:00;;;;;;;22.97;4.13;;;19.90;85.60;;;;;;5046676;28;20451;-72
2023/10/09 07:08:31;;;;;;;25.57;3.60;;;19.90;83.70;;;;;;5046649;28;20443;-74
2023/10/09 07:11:20;;;;;;;19.53;3.70;;;20.00;84.90;;;;;;5030518;28;20492;-74
2023/10/09 07:13:52;;;;;;;28.27;4.83;;;20.00;85.00;;;;;;5047513;28;20811;-72
2023/10/09 07:16:23;;;;;;;18.90;4.00;;;20.10;82.30;;;;;;5047512;28;20514;-69
2023/10/09 07:18:49;;;;;;;29.30;4.07;;;20.20;88.90;;;;;;5047617;28;20419;-69
2023/10/09 07:21:18;;;;;;;23.60;4.70;;;20.30;86.90;;;;;;5047341;28;20520;-69
2023/10/09 07:23:49;;;;;;;18.10;4.30;;;20.30;82.30;;;;;;5046950;28;20446;-70
2023/10/09 07:26:18;;;;;;;21.27;3.70;;;20.40;81.80;;;;;;5045733;28;20827;-70
2023/10/09 07:28:48;;;;;;;22.57;3.67;;;20.50;79.50;;;;;;5046441;28;20422;-69
2023/10/09 07:31:27;;;;;;;15.67;3.13;;;20.50;77.80;;;;;;5047152;28;20426;-70
2023/10/09 07:34:06;;;;;;;13.63;3.33;;;20.50;83.90;;;;;;5047144;28;20532;-69
2023/10/09 07:36:34;;;;;;;22.10;3.40;;;20.50;88.70;;;;;;5046923;28;20476;-69
2023/10/09 07:39:01;;;;;;;17.60;3.80;;;20.50;86.50;;;;;;5047161;28;20831;-69
2023/10/09 07:43:57;;;;;;;19.57;3.30;;;20.60;86.40;;;;;;5046743;28;20430;-69
2023/10/09 07:46:33;;;;;;;12.53;3.80;;;20.60;85.20;;;;;;5045215;28;20525;-70
2023/10/09 07:49:12;;;;;;;20.67;3.90;;;20.60;88.10;;;;;;5045462;28;20432;-70
2023/10/09 07:51:43;;;;;;;26.43;3.97;;;20.70;90.10;;;;;;5045384;28;20418;-70
2023/10/09 07:54:09;;;;;;;30.37;3.90;;;20.80;85.90;;;;;;5046746;28;20432;-70
2023/10/09 07:56:45;;;;;;;17.07;4.73;;;20.80;82.90;;;;;;5046623;28;20827;-70
2023/10/09 07:59:18;;;;;;;24.67;3.90;;;20.90;83.70;;;;;;5045134;28;20430;-73
2023/10/09 08:01:54;;;;;;;28.63;4.60;;;20.90;84.80;;;;;;5046421;28;20458;-73
2023/10/09 08:04:47;;;;;;;25.47;5.10;;;21.00;84.50;;;;;;5046724;28;20920;-74
2023/10/09 08:07:25;;;;;;;15.60;3.50;;;21.00;83.50;;;;;;5046713;28;20433;-74
2023/10/09 08:12:57;;;;;;;22.30;4.10;;;21.10;88.10;;;;;;5046660;28;20416;-73
2023/10/09 08:15:34;;;;;;;18.97;4.97;;;21.20;82.60;;;;;;5046536;28;20993;-74
2023/10/09 08:18:18;;;;;;;15.27;4.20;;;21.20;82.80;;;;;;5046616;28;20426;-74
2023/10/09 08:23:48;;;;;;;20.30;4.00;;;21.30;82.20;;;;;;5046434;28;21238;-74
2023/10/09 08:26:14;;;;;;;17.87;4.00;;;21.40;82.30;;;;;;5044801;28;21046;-73
2023/10/09 08:28:45;;;;;;;20.93;3.90;;;21.40;82.50;;;;;;5046458;28;20512;-74
2023/10/09 08:31:19;;;;;;;22.97;4.83;;;21.50;80.00;;;;;;5045352;28;20433;-73
2023/10/09 08:33:56;;;;;;;15.10;3.90;;;21.50;83.70;;;;;;5046671;28;20434;-74
2023/10/09 08:36:22;;;;;;;18.73;4.03;;;21.60;79.90;;;;;;5045050;28;20483;-74
2023/10/09 08:38:48;;;;;;;18.90;4.33;;;21.70;79.00;;;;;;5029015;28;20435;-74
2023/10/09 08:41:17;;;;;;;22.43;4.80;;;21.80;80.30;;;;;;5049849;28;20489;-74
2023/10/09 08:43:53;;;;;;;27.67;4.27;;;21.80;77.30;;;;;;5050841;28;20872;-73
2023/10/09 08:46:26;;;;;;;22.20;3.60;;;21.90;79.70;;;;;;5050721;28;20483;-74
2023/10/09 08:48:54;;;;;;;25.33;4.17;;;22.00;79.70;;;;;;5050694;28;20429;-74
2023/10/09 08:51:20;;;;;;;21.27;4.47;;;22.00;77.40;;;;;;5050581;28;20426;-73
2023/10/09 08:53:46;;;;;;;19.30;4.43;;;22.10;78.30;;;;;;5049224;28;20418;-74
2023/10/09 08:56:19;;;;;;;20.23;4.47;;;22.10;81.50;;;;;;5048813;28;20581;-75
2023/10/09 08:58:45;;;;;;;35.87;4.27;;;22.20;85.40;;;;;;5048793;28;21022;-74
2023/10/09 09:01:17;;;;;;;27.57;4.53;;;22.20;77.40;;;;;;5050120;28;20449;-74
2023/10/09 09:03:43;;;;;;;12.13;3.60;;;22.30;79.50;;;;;;5048449;28;20265;-74
2023/10/09 09:06:10;;;;;;;23.47;4.30;;;22.30;80.10;;;;;;5049742;28;21023;-74
2023/10/09 09:08:36;;;;;;;16.53;4.57;;;22.30;81.00;;;;;;5050181;28;20490;-75
2023/10/09 09:11:23;;;;;;;19.03;4.00;;;22.40;79.70;;;;;;5049152;28;20431;-76
2023/10/09 09:14:06;;;;;;;52.73;5.53;;;22.30;78.60;;;;;;5052242;28;20431;-75
2023/10/09 09:16:44;;;;;;;31.63;5.20;;;22.40;79.70;;;;;;5053590;28;20477;-76
2023/10/09 09:21:40;;;;;;;15.90;3.93;;;22.40;78.30;;;;;;5050444;28;20837;-76
2023/10/09 09:26:59;;;;;;;20.63;4.33;;;22.40;78.90;;;;;;5049817;28;20811;-76
2023/10/09 09:29:55;;;;;;;25.43;4.53;;;22.50;78.80;;;;;;5049887;28;20429;-75
2023/10/09 09:32:38;;;;;;;17.07;3.40;;;22.50;82.50;;;;;;5048281;28;20437;-75
2023/10/09 09:35:05;;;;;;;17.97;3.70;;;22.50;78.90;;;;;;5048060;28;21039;-74
2023/10/09 09:37:54;;;;;;;14.50;3.63;;;22.60;77.80;;;;;;5048093;28;20504;-75
2023/10/09 09:40:29;;;;;;;23.70;4.33;;;22.70;80.00;;;;;;5048881;28;20434;-75
2023/10/09 09:43:05;;;;;;;18.33;4.23;;;22.80;78.50;;;;;;5049103;28;20451;-75
2023/10/09 09:45:46;;;;;;;23.40;3.93;;;22.80;77.50;;;;;;5047365;28;20455;-75
2023/10/09 09:48:15;;;;;;;18.07;4.40;;;22.80;79.10;;;;;;5047652;28;20984;-75
2023/10/09 09:50:45;;;;;;;19.03;3.93;;;22.90;79.00;;;;;;5047485;28;20433;-76
2023/10/09 09:53:17;;;;;;;18.43;4.10;;;22.90;82.40;;;;;;5048253;28;20426;-76
2023/10/09 09:55:57;;;;;;;18.97;4.50;;;23.00;80.80;;;;;;5047472;28;20843;-75
2023/10/09 09:58:26;;;;;;;22.73;5.57;;;23.00;80.70;;;;;;5047402;28;20441;-76
2023/10/09 10:00:54;;;;;;;16.10;4.33;;;23.00;78.50;;;;;;5048481;28;20445;-75
2023/10/09 10:03:22;;;;;;;24.73;5.00;;;23.00;79.90;;;;;;5030690;28;20422;-76
2023/10/09 10:05:50;;;;;;;19.53;4.90;;;23.10;78.50;;;;;;5049020;28;20438;-76
2023/10/09 10:08:19;;;;;;;30.27;5.33;;;23.20;77.80;;;;;;5048717;28;20429;-75
2023/10/09 10:13:42;;;;;;;21.93;5.70;;;23.30;75.90;;;;;;5048675;28;20458;-74
2023/10/09 10:16:13;;;;;;;40.67;5.07;;;23.40;77.10;;;;;;5048065;28;20550;-75
2023/10/09 10:19:41;;;;;;;20.93;5.00;;;23.70;77.30;;;;;;5049148;28;20431;-77
2023/10/09 10:21:52;;;;;;;25.73;5.20;;;24.20;77.20;;;;;;5050182;28;20934;-75
2023/10/09 10:25:32;;;;;;;46.07;5.53;;;25.20;77.70;;;;;;5030995;28;20946;-76
2023/10/09 10:27:45;;;;;;;32.57;5.77;;;25.50;71.80;;;;;;5051706;28;20504;-76
2023/10/09 10:30:11;;;;;;;25.30;5.17;;;25.40;73.50;;;;;;5048167;28;20469;-75
2023/10/09 10:32:51;;;;;;;18.87;4.87;;;25.50;76.50;;;;;;5048266;28;20944;-76
2023/10/09 10:35:20;;;;;;;18.63;4.30;;;25.50;70.20;;;;;;5047905;28;20206;-75
2023/10/09 10:38:32;;;;;;;39.00;7.13;;;25.50;69.90;;;;;;5048026;28;20472;-75
2023/10/09 10:40:38;;;;;;;34.30;6.40;;;25.20;69.10;;;;;;5046179;28;20472;-75
2023/10/09 10:43:32;;;;;;;33.23;6.50;;;24.90;69.10;;;;;;5048146;28;20479;-74
2023/10/09 10:48:59;;;;;;;24.43;6.83;;;24.40;71.10;;;;;;5048038;28;20428;-76
2023/10/09 10:51:37;;;;;;;33.57;6.97;;;24.40;74.50;;;;;;5046310;28;21227;-75
2023/10/09 10:56:57;;;;;;;36.53;7.33;;;24.30;80.60;;;;;;5053951;28;20488;-76
2023/10/09 10:59:24;;;;;;;28.77;6.43;;;24.30;76.10;;;;;;5046378;28;20429;-75
2023/10/09 11:02:27;;;;;;;35.23;5.97;;;24.30;75.10;;;;;;5029527;28;20842;-75
2023/10/09 11:04:53;;;;;;;38.63;6.03;;;24.20;71.10;;;;;;5048266;28;20465;-76
2023/10/09 11:07:27;;;;;;;29.00;6.07;;;24.10;73.10;;;;;;5048621;28;20461;-75
2023/10/09 11:12:39;;;;;;;32.43;7.20;;;24.00;76.60;;;;;;5047908;28;20432;-75
2023/10/09 11:18:05;;;;;;;34.57;6.50;;;23.80;76.00;;;;;;5047276;28;20479;-77
2023/10/09 11:20:33;;;;;;;35.63;6.37;;;23.60;75.10;;;;;;5046143;28;20931;-76
2023/10/09 11:25:50;;;;;;;29.93;6.20;;;23.40;75.10;;;;;;5047838;28;20434;-76
2023/10/09 11:31:11;;;;;;;25.40;6.80;;;23.30;77.00;;;;;;5048113;28;20460;-75
2023/10/09 11:33:51;;;;;;;30.60;6.10;;;23.10;75.40;;;;;;5048267;28;20424;-76
2023/10/09 11:36:31;;;;;;;27.00;5.43;;;23.10;74.60;;;;;;5029425;28;20479;-76
2023/10/09 11:39:13;;;;;;;32.33;6.23;;;23.10;74.80;;;;;;5048001;28;20490;-76
2023/10/09 11:41:42;;;;;;;27.57;7.07;;;23.10;71.80;;;;;;5047697;28;20422;-76
2023/10/09 11:44:18;;;;;;;31.37;5.90;;;23.20;74.00;;;;;;5047565;28;20494;-76
2023/10/09 11:52:35;;;;;;;29.93;7.47;;;23.30;73.00;;;;;;5047559;28;20769;-76
2023/10/09 11:55:02;;;;;;;46.93;7.00;;;23.40;73.20;;;;;;5046125;28;20468;-75
2023/10/09 11:57:30;;;;;;;34.33;5.77;;;23.30;73.70;;;;;;5045999;28;20481;-76
2023/10/09 11:59:58;;;;;;;30.60;7.40;;;23.30;74.60;;;;;;5047500;28;20843;-76
2023/10/09 12:02:24;;;;;;;43.57;7.67;;;23.20;72.90;;;;;;5029724;28;20456;-76
2023/10/09 12:04:49;;;;;;;33.00;6.67;;;23.20;72.70;;;;;;5047727;28;20421;-77
2023/10/09 12:07:15;;;;;;;31.90;6.00;;;23.20;74.60;;;;;;5047303;28;20214;-76
2023/10/09 12:09:42;;;;;;;23.60;6.13;;;23.10;74.30;;;;;;5013308;28;20236;-77
2023/10/09 12:12:09;;;;;;;35.93;6.13;;;23.00;75.20;;;;;;5046378;28;20911;-76
2023/10/09 12:14:35;;;;;;;36.77;6.83;;;23.00;75.40;;;;;;5047660;28;20184;-76
2023/10/09 12:17:06;;;;;;;34.77;6.10;;;22.90;75.90;;;;;;5033385;28;20496;-76
2023/10/09 12:19:39;;;;;;;30.57;5.90;;;22.90;76.10;;;;;;5049956;28;20236;-76
2023/10/09 12:22:16;;;;;;;23.57;6.13;;;22.90;73.90;;;;;;5051542;28;20419;-75
2023/10/09 12:24:43;;;;;;;51.43;6.70;;;22.90;73.20;;;;;;5050072;28;20421;-76
2023/10/09 12:27:12;;;;;;;33.07;7.03;;;22.80;73.80;;;;;;5049803;28;20518;-76
2023/10/09 12:29:44;;;;;;;31.70;6.00;;;22.80;74.50;;;;;;5051642;28;20431;-76
2023/10/09 12:32:11;;;;;;;18.50;5.80;;;22.80;73.10;;;;;;5033719;28;20442;-76
2023/10/09 12:34:38;;;;;;;35.60;5.93;;;22.80;74.40;;;;;;5050899;28;20452;-76
2023/10/09 12:37:04;;;;;;;26.90;6.47;;;22.80;74.80;;;;;;5049325;28;20473;-75
2023/10/09 12:39:40;;;;;;;38.50;5.77;;;22.80;75.10;;;;;;5032713;28;20997;-76
2023/10/09 12:42:08;;;;;;;26.13;6.30;;;22.90;75.50;;;;;;5050677;28;20421;-76
2023/10/09 12:44:38;;;;;;;25.47;5.10;;;22.90;75.20;;;;;;5032710;28;20427;-76
2023/10/09 12:47:06;;;;;;;23.30;5.40;;;23.00;75.70;;;;;;5048998;28;20458;-77
2023/10/09 12:49:31;;;;;;;21.23;6.10;;;23.10;75.20;;;;;;5049436;28;20434;-75
2023/10/09 12:51:57;;;;;;;26.13;5.53;;;23.20;75.70;;;;;;5032538;28;20442;-76
2023/10/09 12:54:27;;;;;;;42.50;7.47;;;23.30;74.40;;;;;;5049963;28;20197;-76
2023/10/09 12:56:53;;;;;;;29.70;5.67;;;23.30;75.80;;;;;;5050007;28;20717;-76
2023/10/09 12:59:20;;;;;;;29.63;6.93;;;23.40;75.60;;;;;;5050064;28;20424;-76
2023/10/09 13:01:49;;;;;;;30.60;6.13;;;23.50;77.30;;;;;;5048547;28;20477;-74
2023/10/09 13:04:16;;;;;;;22.67;5.03;;;23.50;78.60;;;;;;5048828;28;20431;-77
2023/10/09 13:06:45;;;;;;;26.17;5.77;;;23.60;77.90;;;;;;5049929;28;20945;-76
2023/10/09 13:09:15;;;;;;;38.70;6.60;;;23.80;78.60;;;;;;5050543;28;20428;-77
2023/10/09 13:11:48;;;;;;;30.93;6.90;;;23.90;74.30;;;;;;5049003;28;20937;-77
2023/10/09 13:14:22;;;;;;;32.17;6.00;;;24.10;71.70;;;;;;5050877;28;21180;-77
2023/10/09 13:16:52;;;;;;;25.50;6.10;;;24.10;75.00;;;;;;5034231;28;21063;-77
2023/10/09 13:19:18;;;;;;;33.47;5.90;;;24.30;75.50;;;;;;5049352;28;20435;-76
2023/10/09 13:21:44;;;;;;;26.90;5.97;;;24.30;74.50;;;;;;5049864;28;21005;-76
2023/10/09 13:24:15;;;;;;;23.33;5.73;;;24.30;75.90;;;;;;5049604;28;20452;-76
2023/10/09 13:26:46;;;;;;;37.17;6.60;;;24.20;76.90;;;;;;5051389;28;20870;-76
2023/10/09 13:29:13;;;;;;;29.90;6.50;;;24.20;72.70;;;;;;5054037;28;20860;-78
2023/10/09 13:31:40;;;;;;;34.13;5.97;;;24.20;76.10;;;;;;5052043;28;20504;-76
2023/10/09 13:34:06;;;;;;;27.03;6.03;;;24.20;77.00;;;;;;5048715;28;20870;-76
2023/10/09 13:36:36;;;;;;;21.67;5.10;;;24.10;74.00;;;;;;5049703;28;20480;-76
2023/10/09 13:39:24;;;;;;;23.07;5.70;;;24.10;72.80;;;;;;5048151;28;20441;-75
2023/10/09 13:41:58;;;;;;;34.10;5.90;;;24.20;75.30;;;;;;5049513;28;20528;-76
2023/10/09 13:44:31;;;;;;;27.83;5.30;;;24.30;73.20;;;;;;5048030;28;20467;-76
2023/10/09 13:47:01;;;;;;;32.93;5.70;;;24.40;69.50;;;;;;5047914;28;20976;-74
2023/10/09 13:49:29;;;;;;;30.33;6.67;;;24.50;68.50;;;;;;5047910;28;20429;-77
2023/10/09 13:51:56;;;;;;;34.43;5.80;;;24.50;70.10;;;;;;5049569;28;20848;-75
2023/10/09 13:56:58;;;;;;;35.33;6.80;;;24.70;68.60;;;;;;5049446;28;20982;-75
2023/10/09 13:59:27;;;;;;;27.37;5.83;;;24.70;68.90;;;;;;5048931;28;20805;-76
2023/10/09 14:01:56;;;;;;;26.07;5.93;;;24.70;69.60;;;;;;5047212;28;20481;-76
2023/10/09 14:04:28;;;;;;;22.83;5.73;;;24.80;68.90;;;;;;5047606;28;20428;-77
2023/10/09 14:06:57;;;;;;;22.77;5.10;;;24.80;70.10;;;;;;5047650;28;20449;-77
2023/10/09 14:09:37;;;;;;;24.77;5.77;;;24.90;69.20;;;;;;5047822;28;20430;-75
2023/10/09 14:12:09;;;;;;;23.63;6.00;;;24.90;67.80;;;;;;5049345;28;20420;-75
2023/10/09 14:14:38;;;;;;;19.47;6.00;;;25.00;68.30;;;;;;5047596;28;20416;-76
2023/10/09 14:17:13;;;;;;;31.20;5.30;;;24.90;66.90;;;;;;5048723;28;20881;-76
2023/10/09 14:19:47;;;;;;;34.90;5.20;;;24.90;67.00;;;;;;5048525;28;20416;-75
2023/10/09 14:22:16;;;;;;;18.10;5.53;;;25.00;67.20;;;;;;5047125;28;20479;-76
2023/10/09 14:24:46;;;;;;;21.73;5.63;;;25.00;65.50;;;;;;5048656;28;20798;-75
2023/10/09 14:27:17;;;;;;;21.33;5.53;;;25.00;67.00;;;;;;5030854;28;20526;-76
2023/10/09 14:29:47;;;;;;;33.43;7.63;;;25.00;66.10;;;;;;5047243;28;21071;-76
2023/10/09 14:32:14;;;;;;;24.00;5.50;;;25.00;66.40;;;;;;5030133;28;20545;-75
2023/10/09 14:34:46;;;;;;;22.50;4.97;;;25.00;67.10;;;;;;5046601;28;20426;-76
2023/10/09 14:37:15;;;;;;;20.63;5.90;;;25.00;67.50;;;;;;5047849;28;20465;-75
2023/10/09 14:39:41;;;;;;;33.00;6.07;;;24.90;65.90;;;;;;5047720;28;20911;-76
2023/10/09 14:42:10;;;;;;;26.80;5.60;;;24.90;63.50;;;;;;5048001;28;20418;-75
2023/10/09 14:44:40;;;;;;;19.33;5.60;;;24.90;64.30;;;;;;5046072;28;20920;-75